createdAt,value
2023-09-27T00:01:15.097Z,93.05
2023-09-27T00:03:43.934Z,93.20
2023-09-27T00:06:12.801Z,93.27
2023-09-27T00:08:41.855Z,93.44
2023-09-27T00:11:10.767Z,93.73
2023-09-27T00:13:40.604Z,93.87
2023-09-27T00:16:09.541Z,93.96
2023-09-27T00:18:38.378Z,93.88
2023-09-27T00:21:07.246Z,93.62
2023-09-27T00:23:36.736Z,93.61
2023-09-27T00:26:05.727Z,93.66
2023-09-27T00:28:34.723Z,93.77
2023-09-27T00:31:04.963Z,93.72
2023-09-27T00:33:33.814Z,93.69
2023-09-27T00:36:03.105Z,93.52
2023-09-27T00:38:33.240Z,93.39
2023-09-27T00:41:01.601Z,93.33
2023-09-27T00:43:31.935Z,93.49
2023-09-27T00:46:21.017Z,93.54
2023-09-27T00:48:50.292Z,93.58
2023-09-27T00:51:19.525Z,93.75
2023-09-27T00:53:49.970Z,93.80
2023-09-27T00:56:20.010Z,93.72
2023-09-27T00:58:49.536Z,93.55
2023-09-27T01:01:19.329Z,93.57
2023-09-27T01:03:49.291Z,93.41
2023-09-27T01:06:19.203Z,93.53
2023-09-27T01:08:48.576Z,93.58
2023-09-27T01:11:17.859Z,93.49
2023-09-27T01:13:46.956Z,93.52
2023-09-27T01:16:16.352Z,93.52
2023-09-27T01:18:45.245Z,93.49
2023-09-27T01:21:19.449Z,93.53
2023-09-27T01:23:50.953Z,93.40
2023-09-27T01:26:21.712Z,93.42
2023-09-27T01:28:51.780Z,93.43
2023-09-27T01:31:20.495Z,93.54
2023-09-27T01:33:49.838Z,93.44
2023-09-27T01:36:19.017Z,93.17
2023-09-27T01:38:48.010Z,93.64
2023-09-27T01:41:17.439Z,93.79
2023-09-27T01:43:46.359Z,94.03
2023-09-27T01:46:15.428Z,94.20
2023-09-27T01:48:44.146Z,94.29
2023-09-27T01:51:14.183Z,94.28
2023-09-27T01:53:43.086Z,94.31
2023-09-27T01:56:11.758Z,94.18
2023-09-27T01:58:40.860Z,94.27
2023-09-27T02:01:08.912Z,94.41
2023-09-27T02:03:37.935Z,94.74
2023-09-27T02:06:07.126Z,95.07
2023-09-27T02:08:35.892Z,95.53
2023-09-27T02:11:04.443Z,95.61
2023-09-27T02:13:33.904Z,95.90
2023-09-27T02:16:03.085Z,95.93
2023-09-27T02:18:33.314Z,95.96
2023-09-27T02:21:03.577Z,96.13
2023-09-27T02:23:32.897Z,96.26
2023-09-27T02:26:03.010Z,96.42
2023-09-27T02:28:31.909Z,96.57
2023-09-27T02:31:01.078Z,96.81
2023-09-27T02:33:30.314Z,96.82
2023-09-27T02:35:59.424Z,96.99
2023-09-27T02:38:28.422Z,96.99
2023-09-27T02:40:57.418Z,97.06
2023-09-27T02:43:26.422Z,97.06
2023-09-27T02:45:56.429Z,97.11
2023-09-27T02:48:26.881Z,97.08
2023-09-27T02:50:56.425Z,97.05
2023-09-27T02:53:25.869Z,96.92
2023-09-27T02:55:55.266Z,96.91
2023-09-27T02:58:24.640Z,96.87
2023-09-27T03:00:53.370Z,96.77
2023-09-27T03:03:21.899Z,96.85
2023-09-27T03:05:50.318Z,96.82
2023-09-27T03:08:19.069Z,97.01
2023-09-27T03:10:46.193Z,96.83
2023-09-27T03:13:13.212Z,96.71
2023-09-27T03:15:41.638Z,96.84
2023-09-27T03:18:10.229Z,96.94
2023-09-27T03:20:38.955Z,97.01
2023-09-27T03:23:08.517Z,97.01
2023-09-27T03:25:37.568Z,96.87
2023-09-27T03:28:06.721Z,96.91
2023-09-27T03:30:35.564Z,96.93
2023-09-27T03:33:06.476Z,97.14
2023-09-27T03:35:36.853Z,97.03
2023-09-27T03:38:06.173Z,96.99
2023-09-27T03:40:35.195Z,96.92
2023-09-27T03:43:04.415Z,96.75
2023-09-27T03:45:35.031Z,96.75
2023-09-27T03:48:06.564Z,96.73
2023-09-27T03:50:35.412Z,96.87
2023-09-27T03:53:05.252Z,96.83
2023-09-27T03:55:34.330Z,96.86
2023-09-27T03:58:03.902Z,96.98
2023-09-27T04:00:32.739Z,96.90
2023-09-27T04:03:01.749Z,96.72
2023-09-27T04:05:33.264Z,96.90
2023-09-27T04:08:03.470Z,97.08
2023-09-27T04:10:32.421Z,96.99
2023-09-27T04:13:01.290Z,97.12
2023-09-27T04:15:30.798Z,97.15
2023-09-27T04:18:00.192Z,97.34
2023-09-27T04:20:29.814Z,97.16
2023-09-27T04:22:59.259Z,97.19
2023-09-27T04:25:28.406Z,97.10
2023-09-27T04:27:58.236Z,97.18
2023-09-27T04:30:27.706Z,97.16
2023-09-27T04:32:56.557Z,97.29
2023-09-27T04:35:25.490Z,97.46
2023-09-27T04:37:54.543Z,97.55
2023-09-27T04:40:23.869Z,97.65
2023-09-27T04:42:52.783Z,97.73
2023-09-27T04:45:22.040Z,97.67
2023-09-27T04:47:51.234Z,97.71
2023-09-27T04:50:19.542Z,97.70
2023-09-27T04:52:48.652Z,97.60
2023-09-27T04:55:17.956Z,97.65
2023-09-27T04:57:45.721Z,97.70
2023-09-27T05:00:19.343Z,97.82
2023-09-27T05:02:55.268Z,97.98
2023-09-27T05:05:23.258Z,98.03
2023-09-27T05:07:51.001Z,98.03
2023-09-27T05:10:19.258Z,98.16
2023-09-27T05:12:47.643Z,98.31
2023-09-27T05:15:14.729Z,98.39
2023-09-27T05:17:41.779Z,98.45
2023-09-27T05:20:11.153Z,98.58
2023-09-27T05:22:39.565Z,98.69
2023-09-27T05:25:08.748Z,98.64
2023-09-27T05:27:35.895Z,98.78
2023-09-27T05:30:08.023Z,98.89
2023-09-27T05:32:35.507Z,98.93
2023-09-27T05:35:05.297Z,99.25
2023-09-27T05:37:32.546Z,99.51
2023-09-27T05:39:59.561Z,99.68
2023-09-27T05:42:26.767Z,99.92
2023-09-27T05:44:53.856Z,99.98
2023-09-27T05:47:21.205Z,100.00
2023-09-27T05:49:48.236Z,100.00
2023-09-27T05:52:17.495Z,100.00
2023-09-27T05:54:45.550Z,100.00
2023-09-27T05:57:12.983Z,100.00
2023-09-27T05:59:44.909Z,100.00
2023-09-27T06:02:17.414Z,100.00
2023-09-27T06:04:46.485Z,100.00
2023-09-27T06:07:15.280Z,100.00
2023-09-27T06:09:44.919Z,100.00
2023-09-27T06:12:12.553Z,100.00
2023-09-27T06:14:39.788Z,100.00
2023-09-27T06:17:06.892Z,100.00
2023-09-27T06:19:34.672Z,100.00
2023-09-27T06:22:05.439Z,100.00
2023-09-27T06:24:33.866Z,100.00
2023-09-27T06:27:02.019Z,100.00
2023-09-27T06:29:28.987Z,100.00
2023-09-27T06:31:57.288Z,100.00
2023-09-27T06:34:24.611Z,100.00
2023-09-27T06:36:56.794Z,100.00
2023-09-27T06:39:26.317Z,100.00
2023-09-27T06:41:56.523Z,100.00
2023-09-27T06:44:26.531Z,100.00
2023-09-27T06:46:55.149Z,100.00
2023-09-27T06:49:23.185Z,100.00
2023-09-27T06:51:51.996Z,100.00
2023-09-27T06:54:19.156Z,100.00
2023-09-27T06:56:47.405Z,100.00
2023-09-27T06:59:16.433Z,100.00
2023-09-27T07:01:43.521Z,100.00
2023-09-27T07:04:11.696Z,100.00
2023-09-27T07:06:39.248Z,100.00
2023-09-27T07:09:13.343Z,100.00
2023-09-27T07:11:42.618Z,100.00
2023-09-27T07:14:09.721Z,100.00
2023-09-27T07:16:46.423Z,100.00
2023-09-27T07:19:23.836Z,100.00
2023-09-27T07:21:51.851Z,100.00
2023-09-27T07:24:19.318Z,100.00
2023-09-27T07:26:48.450Z,100.00
2023-09-27T07:29:16.699Z,100.00
2023-09-27T07:31:43.698Z,100.00
2023-09-27T07:34:10.986Z,100.00
2023-09-27T07:36:38.184Z,100.00
2023-09-27T07:39:06.128Z,100.00
2023-09-27T07:41:35.805Z,100.00
2023-09-27T07:44:07.377Z,100.00
2023-09-27T07:46:35.946Z,100.00
2023-09-27T07:49:04.288Z,100.00
2023-09-27T07:51:31.300Z,100.00
2023-09-27T07:53:58.312Z,100.00
2023-09-27T07:56:26.882Z,100.00
2023-09-27T07:58:55.329Z,100.00
2023-09-27T08:01:24.295Z,100.00
2023-09-27T08:03:52.207Z,100.00
2023-09-27T08:06:20.282Z,100.00
2023-09-27T08:08:47.947Z,100.00
2023-09-27T08:11:16.076Z,100.00
2023-09-27T08:13:44.945Z,100.00
2023-09-27T08:16:13.149Z,100.00
2023-09-27T08:18:43.439Z,100.00
2023-09-27T08:21:12.154Z,100.00
2023-09-27T08:23:41.643Z,100.00
2023-09-27T08:26:12.904Z,100.00
2023-09-27T08:28:40.456Z,100.00
2023-09-27T08:31:07.619Z,100.00
2023-09-27T08:33:36.454Z,100.00
2023-09-27T08:36:05.371Z,100.00
2023-09-27T08:38:34.276Z,100.00
2023-09-27T08:41:04.212Z,100.00
2023-09-27T08:43:34.956Z,100.00
2023-09-27T08:46:05.578Z,100.00
2023-09-27T08:48:36.145Z,100.00
2023-09-27T08:51:05.542Z,100.00
2023-09-27T08:53:35.531Z,100.00
2023-09-27T08:56:06.818Z,100.00
2023-09-27T08:58:34.682Z,100.00
2023-09-27T09:01:04.195Z,100.00
2023-09-27T09:03:34.009Z,100.00
2023-09-27T09:06:11.186Z,100.00
2023-09-27T09:08:54.661Z,99.95
2023-09-27T09:11:23.637Z,99.87
2023-09-27T09:14:04.950Z,99.83
2023-09-27T09:16:40.729Z,99.40
2023-09-27T09:19:42.899Z,99.25
2023-09-27T09:22:13.395Z,99.18
2023-09-27T09:24:42.860Z,98.70
2023-09-27T09:27:18.243Z,98.17
2023-09-27T09:29:53.003Z,97.88
2023-09-27T09:32:23.151Z,97.40
2023-09-27T09:34:53.529Z,97.30
2023-09-27T09:37:23.802Z,95.99
2023-09-27T09:39:54.442Z,94.72
2023-09-27T09:42:33.539Z,94.16
2023-09-27T09:45:07.389Z,93.64
2023-09-27T09:47:38.560Z,93.03
2023-09-27T09:50:20.321Z,92.89
2023-09-27T09:52:58.310Z,92.43
2023-09-27T09:55:48.719Z,91.35
2023-09-27T09:58:47.495Z,90.82
2023-09-27T10:01:26.872Z,89.85
2023-09-27T10:03:55.781Z,88.83
2023-09-27T10:06:36.517Z,87.99
2023-09-27T10:09:14.556Z,87.08
2023-09-27T10:11:45.384Z,86.38
2023-09-27T10:14:16.922Z,85.48
2023-09-27T10:16:45.523Z,84.42
2023-09-27T10:19:26.646Z,83.83
2023-09-27T10:22:07.956Z,83.19
2023-09-27T10:24:41.662Z,82.45
2023-09-27T10:27:08.815Z,81.64
2023-09-27T10:29:58.752Z,80.59
2023-09-27T10:32:28.591Z,80.15
2023-09-27T10:35:16.634Z,79.64
2023-09-27T10:37:58.787Z,79.22
2023-09-27T10:40:26.272Z,78.22
2023-09-27T10:42:55.793Z,77.70
2023-09-27T10:45:23.496Z,76.89
2023-09-27T10:47:52.845Z,76.37
2023-09-27T10:50:31.538Z,75.87
2023-09-27T10:52:59.728Z,74.69
2023-09-27T10:55:39.209Z,73.46
2023-09-27T10:58:09.989Z,73.03
2023-09-27T11:00:55.730Z,68.85
2023-09-27T11:03:30.390Z,67.02
2023-09-27T11:06:11.795Z,67.08
2023-09-27T11:08:41.752Z,65.97
2023-09-27T11:11:11.848Z,65.40
2023-09-27T11:13:49.192Z,66.30
2023-09-27T11:16:21.613Z,67.04
2023-09-27T11:18:50.603Z,67.29
2023-09-27T11:21:24.497Z,67.20
2023-09-27T11:24:05.489Z,67.18
2023-09-27T11:26:33.782Z,66.54
2023-09-27T11:29:27.328Z,66.23
2023-09-27T11:31:58.303Z,65.78
2023-09-27T11:34:58.498Z,65.35
2023-09-27T11:37:29.002Z,64.81
2023-09-27T11:39:59.605Z,64.14
2023-09-27T11:42:28.466Z,63.78
2023-09-27T11:45:09.914Z,63.46
2023-09-27T11:47:51.909Z,62.64
2023-09-27T11:50:43.565Z,61.81
2023-09-27T11:53:14.178Z,61.48
2023-09-27T11:55:59.726Z,60.11
2023-09-27T11:58:37.606Z,59.75
2023-09-27T12:01:17.436Z,59.33
2023-09-27T12:04:08.300Z,59.17
2023-09-27T12:06:38.172Z,57.80
2023-09-27T12:09:07.038Z,53.72
2023-09-27T12:11:36.746Z,52.68
2023-09-27T12:14:08.418Z,52.04
2023-09-27T12:16:38.462Z,51.44
2023-09-27T12:19:08.829Z,51.75
2023-09-27T12:21:38.226Z,52.70
2023-09-27T12:24:08.852Z,53.38
2023-09-27T12:26:38.562Z,53.82
2023-09-27T12:29:08.320Z,54.04
2023-09-27T12:31:37.535Z,54.26
2023-09-27T12:34:06.907Z,54.31
2023-09-27T12:36:51.273Z,54.04
2023-09-27T12:39:21.512Z,54.12
2023-09-27T12:41:55.359Z,54.00
2023-09-27T12:44:23.739Z,53.76
2023-09-27T12:46:58.162Z,53.82
2023-09-27T12:49:28.108Z,53.50
2023-09-27T12:51:56.995Z,53.03
2023-09-27T12:54:30.477Z,52.76
2023-09-27T12:57:01.624Z,52.66
2023-09-27T12:59:41.095Z,52.32
2023-09-27T13:02:31.725Z,51.51
2023-09-27T13:05:02.411Z,48.96
2023-09-27T13:07:51.403Z,48.70
2023-09-27T13:10:21.361Z,48.60
2023-09-27T13:12:53.192Z,48.56
2023-09-27T13:15:20.598Z,49.47
2023-09-27T13:17:47.951Z,50.49
2023-09-27T13:20:16.102Z,51.11
2023-09-27T13:22:46.112Z,50.96
2023-09-27T13:25:16.029Z,51.00
2023-09-27T13:27:45.714Z,50.99
2023-09-27T13:30:29.673Z,50.78
2023-09-27T13:33:06.859Z,50.63
2023-09-27T13:35:37.328Z,50.53
2023-09-27T13:38:11.110Z,50.81
2023-09-27T13:40:39.732Z,50.57
2023-09-27T13:43:08.922Z,50.19
2023-09-27T13:45:38.978Z,49.97
2023-09-27T13:48:08.598Z,50.18
2023-09-27T13:50:41.290Z,50.13
2023-09-27T13:53:11.630Z,50.03
2023-09-27T13:55:59.058Z,49.87
2023-09-27T13:58:28.170Z,49.70
2023-09-27T14:01:23.694Z,49.16
2023-09-27T14:04:03.432Z,49.30
2023-09-27T14:06:57.987Z,49.16
2023-09-27T14:09:28.895Z,46.96
2023-09-27T14:19:53.115Z,45.71
2023-09-27T14:22:49.257Z,47.24
2023-09-27T14:25:37.068Z,48.38
2023-09-27T14:28:14.429Z,48.89
2023-09-27T14:31:39.086Z,48.87
2023-09-27T14:34:56.711Z,49.04
2023-09-27T14:38:14.266Z,48.88
2023-09-27T14:41:30.151Z,48.66
2023-09-27T14:44:28.011Z,48.72
2023-09-27T14:47:55.876Z,48.63
2023-09-27T14:50:26.123Z,48.37
2023-09-27T14:52:56.704Z,48.29
2023-09-27T14:55:30.690Z,48.13
2023-09-27T14:58:22.019Z,48.21
2023-09-27T15:00:52.875Z,48.17
2023-09-27T15:03:34.083Z,48.05
2023-09-27T15:06:07.861Z,47.76
2023-09-27T15:08:38.789Z,47.63
2023-09-27T15:11:22.542Z,47.77
2023-09-27T15:14:10.165Z,47.77
2023-09-27T15:16:51.653Z,47.74
2023-09-27T15:19:23.135Z,47.50
2023-09-27T15:22:22.697Z,47.72
2023-09-27T15:24:53.631Z,45.22
2023-09-27T15:27:43.323Z,43.95
2023-09-27T15:30:22.733Z,43.87
2023-09-27T15:32:55.194Z,43.96
2023-09-27T15:35:55.313Z,45.10
2023-09-27T15:38:50.878Z,46.77
2023-09-27T15:41:44.627Z,47.40
2023-09-27T15:44:14.112Z,47.60
2023-09-27T15:46:49.768Z,47.83
2023-09-27T15:49:18.977Z,47.62
2023-09-27T15:52:19.141Z,47.58
2023-09-27T15:55:09.634Z,47.43
2023-09-27T15:57:49.593Z,47.39
2023-09-27T16:00:19.704Z,46.95
2023-09-27T16:03:01.217Z,46.85
2023-09-27T16:05:52.499Z,46.84
2023-09-27T16:08:23.923Z,47.12
2023-09-27T16:11:27.089Z,47.28
2023-09-27T16:14:09.990Z,47.01
2023-09-27T16:16:45.496Z,47.06
2023-09-27T16:24:48.045Z,47.20
2023-09-27T16:27:35.034Z,47.86
2023-09-27T16:30:21.123Z,48.35
2023-09-27T16:32:50.317Z,48.85
2023-09-27T16:35:18.453Z,49.06
2023-09-27T16:37:46.206Z,49.63
2023-09-27T16:40:14.865Z,49.88
2023-09-27T16:42:42.509Z,50.35
2023-09-27T16:45:11.062Z,50.91
2023-09-27T16:47:40.151Z,51.18
2023-09-27T16:50:09.956Z,51.88
2023-09-27T16:52:37.906Z,52.18
2023-09-27T16:55:09.409Z,52.75
2023-09-27T16:57:39.362Z,53.15
2023-09-27T17:00:11.347Z,53.74
2023-09-27T17:02:44.005Z,53.92
2023-09-27T17:05:11.683Z,54.42
2023-09-27T17:07:39.821Z,54.72
2023-09-27T17:10:10.628Z,55.14
2023-09-27T17:12:40.065Z,55.42
2023-09-27T17:15:08.867Z,55.87
2023-09-27T17:17:37.466Z,56.42
2023-09-27T17:20:06.217Z,56.99
2023-09-27T17:22:34.025Z,57.30
2023-09-27T17:25:01.591Z,57.83
2023-09-27T17:27:29.246Z,58.19
2023-09-27T17:29:59.254Z,58.69
2023-09-27T17:32:26.851Z,58.87
2023-09-27T17:34:54.899Z,59.31
2023-09-27T17:37:22.725Z,59.70
2023-09-27T17:39:51.706Z,61.90
2023-09-27T17:42:19.263Z,62.80
2023-09-27T17:44:49.420Z,63.70
2023-09-27T17:47:17.750Z,64.39
2023-09-27T17:49:45.385Z,64.73
2023-09-27T17:52:13.048Z,64.36
2023-09-27T17:54:40.797Z,64.66
2023-09-27T17:57:08.536Z,64.89
2023-09-27T17:59:36.359Z,65.04
2023-09-27T18:02:04.180Z,65.35
2023-09-27T18:04:32.479Z,65.45
2023-09-27T18:06:59.692Z,65.65
2023-09-27T18:09:26.889Z,65.78
2023-09-27T18:11:54.109Z,66.08
2023-09-27T18:14:22.478Z,66.41
2023-09-27T18:16:49.761Z,66.51
2023-09-27T18:19:17.316Z,66.84
2023-09-27T18:21:46.055Z,67.00
2023-09-27T18:24:13.374Z,67.09
2023-09-27T18:26:40.625Z,67.45
2023-09-27T18:29:07.965Z,67.58
2023-09-27T18:31:35.273Z,67.82
2023-09-27T18:34:05.426Z,68.05
2023-09-27T18:36:34.327Z,68.33
2023-09-27T18:39:03.326Z,68.27
2023-09-27T18:41:31.416Z,68.57
2023-09-27T18:43:59.138Z,68.83
2023-09-27T18:46:26.589Z,68.98
2023-09-27T18:48:54.060Z,69.07
2023-09-27T18:51:21.681Z,69.38
2023-09-27T18:53:49.857Z,69.56
2023-09-27T18:56:20.145Z,69.75
2023-09-27T18:58:47.525Z,69.90
2023-09-27T19:01:15.412Z,70.11
2023-09-27T19:03:42.470Z,70.37
2023-09-27T19:06:14.743Z,70.45
2023-09-27T19:08:42.926Z,70.65
2023-09-27T19:11:18.240Z,70.75
2023-09-27T19:13:45.461Z,70.95
2023-09-27T19:16:12.605Z,70.91
2023-09-27T19:18:39.863Z,71.08
2023-09-27T19:21:09.090Z,71.22
2023-09-27T19:23:39.574Z,71.51
2023-09-27T19:26:07.461Z,71.68
2023-09-27T19:28:35.936Z,71.90
2023-09-27T19:31:07.823Z,72.18
2023-09-27T19:33:41.759Z,72.25
2023-09-27T19:36:18.431Z,72.41
2023-09-27T19:38:47.982Z,72.67
2023-09-27T19:41:21.512Z,72.77
2023-09-27T19:43:48.702Z,72.85
2023-09-27T19:46:21.565Z,73.07
2023-09-27T19:48:48.787Z,73.16
2023-09-27T19:51:25.263Z,73.19
2023-09-27T19:53:54.837Z,73.35
2023-09-27T19:56:22.291Z,73.37
2023-09-27T19:58:49.890Z,73.51
2023-09-27T20:01:29.360Z,73.60
2023-09-27T20:03:56.887Z,73.87
2023-09-27T20:06:25.969Z,73.97
2023-09-27T20:08:52.913Z,74.04
2023-09-27T20:11:20.766Z,74.26
2023-09-27T20:13:47.929Z,74.28
2023-09-27T20:16:15.203Z,74.48
2023-09-27T20:18:42.225Z,74.57
2023-09-27T20:21:09.485Z,74.58
2023-09-27T20:23:38.507Z,74.77
2023-09-27T20:26:05.831Z,74.69
2023-09-27T20:28:33.019Z,74.85
2023-09-27T20:31:00.031Z,74.92
2023-09-27T20:33:27.193Z,74.96
2023-09-27T20:35:54.174Z,75.13
2023-09-27T20:38:21.230Z,75.13
2023-09-27T20:40:48.229Z,75.21
2023-09-27T20:43:15.484Z,75.35
2023-09-27T20:45:42.657Z,75.31
2023-09-27T20:48:09.716Z,75.47
2023-09-27T20:50:36.847Z,75.47
2023-09-27T20:53:04.012Z,75.59
2023-09-27T20:55:31.210Z,75.65
2023-09-27T20:58:04.111Z,75.79
2023-09-27T21:00:31.855Z,75.74
2023-09-27T21:02:58.926Z,75.82
2023-09-27T21:05:25.958Z,76.01
2023-09-27T21:07:53.496Z,76.01
2023-09-27T21:10:20.603Z,76.32
2023-09-27T21:12:47.578Z,76.34
2023-09-27T21:15:14.658Z,76.32
2023-09-27T21:17:41.923Z,76.36
2023-09-27T21:20:10.070Z,76.62
2023-09-27T21:22:37.207Z,76.65
2023-09-27T21:25:04.888Z,76.62
2023-09-27T21:27:32.922Z,76.74
2023-09-27T21:30:04.238Z,76.95
2023-09-27T21:32:31.347Z,77.08
2023-09-27T21:34:58.545Z,77.12
2023-09-27T21:37:26.628Z,77.24
2023-09-27T21:39:54.157Z,77.29
2023-09-27T21:42:21.110Z,77.43
2023-09-27T21:44:48.078Z,77.53
2023-09-27T21:47:15.204Z,77.79
2023-09-27T21:49:42.272Z,77.65
2023-09-27T21:52:09.298Z,77.74
2023-09-27T21:54:36.333Z,77.91
2023-09-27T21:57:03.482Z,77.96
2023-09-27T21:59:31.661Z,78.06
2023-09-27T22:01:58.714Z,78.19
2023-09-27T22:04:25.812Z,78.35
2023-09-27T22:06:52.777Z,78.44
2023-09-27T22:09:20.083Z,78.43
2023-09-27T22:11:51.782Z,78.64
2023-09-27T22:14:20.472Z,78.70
2023-09-27T22:16:48.491Z,78.80
2023-09-27T22:19:15.479Z,78.97
2023-09-27T22:21:46.681Z,79.05
2023-09-27T22:24:18.240Z,79.19
2023-09-27T22:26:47.441Z,79.22
2023-09-27T22:29:14.516Z,79.21
2023-09-27T22:31:42.796Z,79.23
2023-09-27T22:34:23.105Z,79.29
2023-09-27T22:36:51.350Z,79.51
2023-09-27T22:39:19.632Z,79.46
2023-09-27T22:41:48.754Z,79.59
2023-09-27T22:44:22.691Z,79.67
2023-09-27T22:46:53.206Z,79.64
2023-09-27T22:49:22.664Z,79.67
2023-09-27T22:51:50.620Z,79.81
2023-09-27T22:54:21.081Z,79.85
2023-09-27T22:56:52.504Z,79.96
2023-09-27T22:59:19.522Z,79.86
2023-09-27T23:01:51.072Z,79.87
2023-09-27T23:04:23.056Z,80.03
2023-09-27T23:07:02.058Z,80.16
2023-09-27T23:09:34.745Z,80.35
2023-09-27T23:12:20.745Z,80.38
2023-09-27T23:15:07.004Z,80.37
2023-09-27T23:17:55.590Z,80.42
2023-09-27T23:20:29.224Z,80.44
2023-09-27T23:22:57.510Z,80.53
2023-09-27T23:25:43.450Z,80.55
2023-09-27T23:28:17.079Z,80.58
2023-09-27T23:30:53.039Z,80.61
2023-09-27T23:33:20.113Z,80.76
2023-09-27T23:35:50.402Z,80.93
2023-09-27T23:38:37.233Z,81.01
2023-09-27T23:41:04.478Z,81.18
2023-09-27T23:43:40.462Z,81.21
2023-09-27T23:46:14.096Z,81.16
2023-09-27T23:48:42.865Z,81.28
2023-09-27T23:51:10.037Z,81.34
2023-09-27T23:53:37.162Z,81.51
2023-09-27T23:56:07.078Z,81.57
2023-09-27T23:58:35.435Z,81.53
